»·PEaware :: N815M KSNA-KSMO

N815M :: KSNA-KSMO

FLIGHT INFORMATION

Flight Status: Arrived
Operator: Privately registered:
United States
More flights under this callsign
Pilot: Robert C. (30425)
Aircraft: BEECH AIRCRAFT DEBONAIR BONANZA
(BE33)
More flights by this aircraft type
Origin: KSNA John Wayne-Orange Co
United States
Destination: KSMO Santa Monica Mun
United States
More flights between these airports :: More routes between these airports
Route: +SLI V8 POXKU V363 BAYJY V186 DARTS
File this flight plan on PilotEdge
Remarks: TEC ROUTE CSTP9
Altitude:
(Current/Filed)
6,000ft
Speed:
(Current/Filed)
150kts
Departed: 19-Sep-20 07:49 AM
Arrived: 19-Sep-20 08:22 AM
Distance/Time
Traveled:
36nm/0:33
Distance/Time
To Go:
Arrived

Flight Plot

Page will automatically refresh every two minutes.


Map Options




Map Legend


Flown Route
Filed Route
Departure Airport
Arrival Airport
Navaid (VOR, NDB)
Fix

Horizontal Profiles

Position Reports

Time Latitude Longitude Heading Altitude Ground
Speed
19-Sep-20 07:24 33.676024 -117.871117 40 60ft 0kts
19-Sep-20 07:25 33.676024 -117.871117 40 60ft 0kts
19-Sep-20 07:26 33.676024 -117.871117 40 60ft 0kts
19-Sep-20 07:27 33.676024 -117.871117 40 60ft 0kts
19-Sep-20 07:28 33.676024 -117.871117 40 60ft 0kts
19-Sep-20 07:29 33.676024 -117.871117 40 60ft 0kts
19-Sep-20 07:30 33.676024 -117.871117 40 60ft 0kts
19-Sep-20 07:31 33.676024 -117.871117 40 60ft 0kts
19-Sep-20 07:32 33.676024 -117.871117 40 60ft 0kts
19-Sep-20 07:33 33.676024 -117.871117 40 60ft 0kts
19-Sep-20 07:34 33.676024 -117.871117 40 60ft 0kts
19-Sep-20 07:35 33.676024 -117.871117 40 60ft 0kts
19-Sep-20 07:36 33.676024 -117.871117 40 60ft 0kts
19-Sep-20 07:37 33.676024 -117.871117 40 60ft 0kts
19-Sep-20 07:38 33.676024 -117.871117 40 60ft 0kts
19-Sep-20 07:39 33.676024 -117.871117 40 60ft 0kts
19-Sep-20 07:40 33.676024 -117.871117 40 60ft 0kts
19-Sep-20 07:41 33.676024 -117.871117 40 60ft 0kts
19-Sep-20 07:42 33.676024 -117.871117 40 60ft 0kts
19-Sep-20 07:43 33.676024 -117.871117 40 60ft 0kts
19-Sep-20 07:44 33.676045 -117.870097 26 60ft 9kts
19-Sep-20 07:45 33.680025 -117.867791 25 60ft 17kts
19-Sep-20 07:46 33.681212 -117.866476 119 60ft 0kts
19-Sep-20 07:47 33.680944 -117.865872 126 60ft 9kts
19-Sep-20 07:49 33.662695 -117.876978 203 277ft 99kts
19-Sep-20 07:50 33.643633 -117.899774 230 918ft 93kts
19-Sep-20 07:51 33.627926 -117.923231 230 1611ft 87kts
19-Sep-20 07:52 33.609479 -117.949946 231 2282ft 123kts
19-Sep-20 07:53 33.595066 -117.987032 304 2886ft 139kts
19-Sep-20 07:54 33.632047 -117.986527 9 3679ft 139kts
19-Sep-20 07:55 33.669120 -117.973934 14 4470ft 137kts
19-Sep-20 07:56 33.705279 -117.959218 14 5265ft 134kts
19-Sep-20 07:57 33.740547 -117.945252 13 5979ft 138kts
19-Sep-20 07:58 33.782366 -117.929297 14 5994ft 169kts
19-Sep-20 07:59 33.824116 -117.908443 61 5992ft 156kts
19-Sep-20 08:00 33.837915 -117.860737 81 5987ft 148kts
19-Sep-20 08:01 33.847567 -117.812589 80 5989ft 146kts
19-Sep-20 08:02 33.876104 -117.784920 4 5996ft 154kts
19-Sep-20 08:03 33.919251 -117.784239 1 5991ft 154kts
19-Sep-20 08:04 33.962070 -117.784837 1 5977ft 153kts
19-Sep-20 08:05 34.002208 -117.788733 316 5970ft 137kts
19-Sep-20 08:05 34.017744 -117.823527 290 5992ft 145kts
19-Sep-20 08:07 34.035916 -117.878543 287 5990ft 153kts
19-Sep-20 08:08 34.051052 -117.927157 286 5984ft 154kts
19-Sep-20 08:08 34.063545 -117.967702 286 5979ft 154kts
19-Sep-20 08:10 34.081011 -118.024490 286 5970ft 154kts
19-Sep-20 08:11 34.095887 -118.073035 286 5978ft 153kts
19-Sep-20 08:11 34.107996 -118.112945 290 6023ft 148kts
19-Sep-20 08:12 34.116106 -118.159543 275 5743ft 145kts
19-Sep-20 08:13 34.115928 -118.206102 272 5064ft 137kts
19-Sep-20 08:14 34.118030 -118.252325 276 4272ft 139kts
19-Sep-20 08:15 34.120841 -118.299436 276 3478ft 142kts
19-Sep-20 08:16 34.120862 -118.345451 230 2980ft 127kts
19-Sep-20 08:17 34.095731 -118.369968 210 2967ft 117kts
19-Sep-20 08:18 34.068185 -118.389981 217 1942ft 112kts
19-Sep-20 08:19 34.046846 -118.413364 224 1213ft 97kts
19-Sep-20 08:20 34.028042 -118.436482 227 572ft 95kts
19-Sep-20 08:21 34.014742 -118.452721 254 178ft 5kts
19-Sep-20 08:22 34.014924 -118.453192 321 178ft 0kts
19-Sep-20 08:23 34.012915 -118.456212 332 178ft 0kts

Navigation Log

Ident Type
Flight plan parsing failed, navigation log unavailable